createdAt,value
2018-09-25T00:02:20.614Z,1.62
2018-09-25T00:04:54.343Z,4.70
2018-09-25T00:07:28.005Z,2.63
2018-09-25T00:10:01.623Z,6.40
2018-09-25T00:12:35.199Z,4.07
2018-09-25T00:15:08.940Z,2.37
2018-09-25T00:17:42.555Z,7.17
2018-09-25T00:20:16.275Z,3.60
2018-09-25T00:22:49.980Z,5.80
2018-09-25T00:25:23.678Z,5.53
2018-09-25T00:27:57.292Z,2.83
2018-09-25T00:30:30.840Z,2.20
2018-09-25T00:33:04.631Z,3.53
2018-09-25T00:35:38.224Z,5.37
2018-09-25T00:38:11.879Z,5.10
2018-09-25T00:40:45.404Z,8.63
2018-09-25T00:43:19.090Z,7.20
2018-09-25T00:45:52.708Z,6.05
2018-09-25T00:48:26.316Z,4.93
2018-09-25T00:51:00.933Z,3.83
2018-09-25T00:53:35.476Z,4.53
2018-09-25T00:56:09.508Z,10.00
2018-09-25T00:58:43.115Z,4.13
2018-09-25T01:01:16.901Z,3.20
2018-09-25T01:03:50.592Z,3.00
2018-09-25T01:06:24.204Z,5.87
2018-09-25T01:08:57.827Z,5.55
2018-09-25T01:11:31.463Z,10.63
2018-09-25T01:14:05.136Z,6.63
2018-09-25T01:16:38.759Z,4.97
2018-09-25T01:19:12.542Z,6.23
2018-09-25T01:21:46.109Z,4.80
2018-09-25T01:24:19.828Z,5.17
2018-09-25T01:26:53.634Z,5.87
2018-09-25T01:29:27.359Z,5.17
2018-09-25T01:32:01.175Z,6.40
2018-09-25T01:34:34.952Z,9.78
2018-09-25T01:37:08.715Z,11.17
2018-09-25T01:39:42.477Z,5.00
2018-09-25T01:42:16.106Z,4.60
2018-09-25T01:44:49.756Z,5.30
2018-09-25T01:47:23.437Z,8.50
2018-09-25T01:49:56.963Z,8.70
2018-09-25T01:52:30.458Z,3.60
2018-09-25T01:55:04.900Z,7.63
2018-09-25T01:57:38.650Z,7.50
2018-09-25T02:00:12.481Z,6.30
2018-09-25T02:02:46.311Z,7.33
2018-09-25T02:05:20.178Z,5.58
2018-09-25T02:07:53.768Z,4.65
2018-09-25T02:10:27.695Z,4.90
2018-09-25T02:13:01.284Z,4.77
2018-09-25T02:15:34.957Z,4.13
2018-09-25T02:18:08.780Z,4.90
2018-09-25T02:20:42.408Z,4.07
2018-09-25T02:23:16.099Z,3.93
2018-09-25T02:25:49.871Z,8.15
2018-09-25T02:28:23.628Z,4.70
2018-09-25T02:30:57.393Z,5.70
2018-09-25T02:33:30.998Z,5.20
2018-09-25T02:36:04.644Z,7.80
2018-09-25T02:38:38.333Z,3.77
2018-09-25T02:41:12.101Z,9.67
2018-09-25T02:43:45.988Z,5.25
2018-09-25T02:46:20.812Z,5.78
2018-09-25T02:48:54.492Z,7.63
2018-09-25T02:51:30.270Z,8.38
2018-09-25T02:54:03.925Z,9.83
2018-09-25T02:56:37.709Z,4.93
2018-09-25T02:59:11.581Z,7.93
2018-09-25T03:01:45.277Z,6.30
2018-09-25T03:04:18.906Z,6.40
2018-09-25T03:06:52.618Z,4.90
2018-09-25T03:09:27.427Z,4.27
2018-09-25T03:12:01.014Z,4.87
2018-09-25T03:14:35.676Z,7.05
2018-09-25T03:17:09.882Z,6.10
2018-09-25T03:19:43.490Z,5.97
2018-09-25T03:22:17.360Z,5.53
2018-09-25T03:24:50.993Z,3.50
2018-09-25T03:27:24.637Z,3.63
2018-09-25T03:29:58.214Z,4.67
2018-09-25T03:32:32.060Z,3.73
2018-09-25T03:35:05.789Z,5.07
2018-09-25T03:37:39.403Z,5.00
2018-09-25T03:40:13.180Z,7.50
2018-09-25T03:42:47.249Z,5.42
2018-09-25T03:45:20.966Z,4.10
2018-09-25T03:47:54.775Z,4.83
2018-09-25T03:50:28.515Z,7.63
2018-09-25T03:53:02.165Z,5.67
2018-09-25T03:55:36.910Z,4.60
2018-09-25T03:58:10.571Z,2.53
2018-09-25T04:00:44.314Z,6.63
2018-09-25T04:03:18.048Z,3.77
2018-09-25T04:05:52.771Z,8.83
2018-09-25T04:08:26.631Z,4.80
2018-09-25T04:11:00.367Z,4.08
2018-09-25T04:13:34.065Z,5.40
2018-09-25T04:16:07.705Z,12.40
2018-09-25T04:18:41.358Z,7.57
2018-09-25T04:21:15.063Z,11.13
2018-09-25T04:23:48.812Z,8.43
2018-09-25T04:26:22.717Z,8.55
2018-09-25T04:28:57.025Z,7.40
2018-09-25T04:31:30.989Z,6.35
2018-09-25T04:34:04.573Z,13.20
2018-09-25T04:36:40.894Z,14.73
2018-09-25T04:39:14.771Z,7.80
2018-09-25T04:41:48.669Z,7.50
2018-09-25T04:44:22.495Z,7.45
2018-09-25T04:46:56.207Z,9.23
2018-09-25T04:49:30.070Z,14.30
2018-09-25T04:52:03.624Z,9.20
2018-09-25T04:54:37.355Z,11.20
2018-09-25T04:57:11.178Z,9.30
2018-09-25T04:59:44.937Z,11.90
2018-09-25T05:02:18.616Z,16.10
2018-09-25T05:04:52.367Z,12.90
2018-09-25T05:07:26.286Z,9.20
2018-09-25T05:10:00.152Z,11.07
2018-09-25T05:12:33.855Z,13.95
2018-09-25T05:15:07.613Z,11.12
2018-09-25T05:17:41.649Z,15.83
2018-09-25T05:20:16.032Z,11.43
2018-09-25T05:22:50.767Z,11.17
2018-09-25T05:25:24.646Z,13.23
2018-09-25T05:27:58.949Z,11.63
2018-09-25T05:30:32.710Z,17.27
2018-09-25T05:33:06.255Z,14.73
2018-09-25T05:35:40.084Z,9.83
2018-09-25T05:38:13.987Z,15.15
2018-09-25T05:40:47.669Z,7.90
2018-09-25T05:43:21.302Z,7.90
2018-09-25T05:45:55.055Z,10.00
2018-09-25T05:48:29.339Z,12.78
2018-09-25T05:51:02.849Z,15.60
2018-09-25T05:53:36.570Z,11.25
2018-09-25T05:56:10.373Z,18.80
2018-09-25T05:58:43.987Z,14.07
2018-09-25T06:01:17.765Z,7.00
2018-09-25T06:03:51.398Z,9.50
2018-09-25T06:06:25.254Z,7.73
2018-09-25T06:08:58.873Z,8.97
2018-09-25T06:11:32.736Z,7.43
2018-09-25T06:14:06.230Z,6.47
2018-09-25T06:16:39.896Z,11.08
2018-09-25T06:19:13.610Z,8.00
2018-09-25T06:21:47.453Z,7.17
2018-09-25T06:24:21.304Z,7.50
2018-09-25T06:26:54.941Z,7.07
2018-09-25T06:29:28.658Z,11.83
2018-09-25T06:32:02.301Z,7.03
2018-09-25T06:34:36.115Z,9.07
2018-09-25T06:37:09.833Z,9.03
2018-09-25T06:39:43.484Z,8.87
2018-09-25T06:42:17.206Z,11.48
2018-09-25T06:44:50.738Z,12.58
2018-09-25T06:47:25.139Z,13.30
2018-09-25T06:49:58.644Z,13.83
2018-09-25T06:52:32.517Z,15.60
2018-09-25T06:55:06.343Z,10.97
2018-09-25T06:57:39.828Z,8.50
2018-09-25T07:00:13.624Z,8.10
2018-09-25T07:02:47.688Z,11.90
2018-09-25T07:05:21.332Z,9.47
2018-09-25T07:07:55.059Z,12.53
2018-09-25T07:10:29.043Z,8.63
2018-09-25T07:13:02.389Z,10.37
2018-09-25T07:15:35.995Z,13.37
2018-09-25T07:18:16.157Z,13.22
2018-09-25T07:20:49.837Z,9.03
2018-09-25T07:23:23.607Z,9.88
2018-09-25T07:25:57.260Z,13.38
2018-09-25T07:28:31.035Z,13.55
2018-09-25T07:31:05.026Z,9.17
2018-09-25T07:33:38.580Z,15.03
2018-09-25T07:36:12.832Z,18.10
2018-09-25T07:38:46.557Z,10.90
2018-09-25T07:41:20.735Z,8.57
2018-09-25T07:43:54.664Z,12.40
2018-09-25T07:46:28.404Z,8.20
2018-09-25T07:49:02.099Z,17.98
2018-09-25T07:51:35.932Z,9.80
2018-09-25T07:54:09.804Z,8.80
2018-09-25T07:56:43.645Z,11.97
2018-09-25T07:59:17.328Z,9.97
2018-09-25T08:01:51.054Z,8.73
2018-09-25T08:04:24.695Z,9.93
2018-09-25T08:06:58.456Z,7.37
2018-09-25T08:09:32.181Z,10.93
2018-09-25T08:12:06.544Z,7.00
2018-09-25T08:14:40.292Z,10.90
2018-09-25T08:17:13.928Z,12.60
2018-09-25T08:19:47.638Z,7.87
2018-09-25T08:22:21.682Z,12.97
2018-09-25T08:24:55.392Z,15.30
2018-09-25T08:27:29.106Z,10.13
2018-09-25T08:30:02.947Z,8.67
2018-09-25T08:32:36.804Z,7.90
2018-09-25T08:35:11.511Z,10.97
2018-09-25T08:37:45.313Z,6.97
2018-09-25T08:40:19.012Z,11.60
2018-09-25T08:42:52.569Z,10.63
2018-09-25T08:45:26.313Z,14.33
2018-09-25T08:47:59.985Z,7.87
2018-09-25T08:50:33.740Z,8.07
2018-09-25T08:53:07.365Z,9.83
2018-09-25T08:55:41.827Z,10.47
2018-09-25T08:58:15.408Z,8.60
2018-09-25T09:00:49.186Z,9.05
2018-09-25T09:03:22.857Z,6.67
2018-09-25T09:05:56.417Z,10.67
2018-09-25T09:08:30.220Z,8.87
2018-09-25T09:11:03.888Z,10.65
2018-09-25T09:13:37.635Z,12.27
2018-09-25T09:16:11.270Z,7.12
2018-09-25T09:18:44.920Z,6.03
2018-09-25T09:21:18.702Z,6.30
2018-09-25T09:23:52.552Z,8.87
2018-09-25T09:26:26.548Z,5.87
2018-09-25T09:29:00.324Z,5.90
2018-09-25T09:31:34.082Z,5.70
2018-09-25T09:34:07.636Z,14.20
2018-09-25T09:36:41.440Z,5.20
2018-09-25T09:39:15.255Z,5.30
2018-09-25T09:41:49.067Z,8.73
2018-09-25T09:44:22.590Z,5.20
2018-09-25T09:46:56.332Z,6.50
2018-09-25T09:49:30.283Z,4.70
2018-09-25T09:52:04.014Z,4.17
2018-09-25T09:54:37.860Z,7.07
2018-09-25T09:57:11.615Z,5.00
2018-09-25T09:59:45.309Z,3.73
2018-09-25T10:02:19.068Z,6.90
2018-09-25T10:04:52.725Z,7.85
2018-09-25T10:07:26.412Z,10.63
2018-09-25T10:09:59.985Z,7.13
2018-09-25T10:12:33.821Z,5.47
2018-09-25T10:15:07.373Z,5.37
2018-09-25T10:17:41.036Z,8.50
2018-09-25T10:20:14.805Z,13.00
2018-09-25T10:22:48.419Z,7.20
2018-09-25T10:25:22.187Z,4.60
2018-09-25T10:27:55.900Z,6.40
2018-09-25T10:30:29.697Z,3.17
2018-09-25T10:33:03.453Z,9.20
2018-09-25T10:35:37.143Z,3.13
2018-09-25T10:38:10.838Z,3.83
2018-09-25T10:40:44.475Z,7.83
2018-09-25T10:43:18.262Z,4.95
2018-09-25T10:45:52.092Z,5.58
2018-09-25T10:48:25.657Z,4.97
2018-09-25T10:50:59.457Z,5.10
2018-09-25T10:53:33.171Z,2.47
2018-09-25T10:56:06.775Z,3.53
2018-09-25T10:58:40.461Z,2.00
2018-09-25T11:01:14.214Z,3.73
2018-09-25T11:03:47.945Z,5.03
2018-09-25T11:06:21.956Z,5.22
2018-09-25T11:08:55.648Z,1.50
2018-09-25T11:11:29.212Z,2.67
2018-09-25T11:14:03.001Z,2.37
2018-09-25T11:16:36.877Z,1.80
2018-09-25T11:19:10.730Z,2.93
2018-09-25T11:21:44.482Z,4.17
2018-09-25T11:24:18.260Z,4.13
2018-09-25T11:26:52.789Z,4.87
2018-09-25T11:29:27.166Z,3.70
2018-09-25T11:32:01.089Z,3.17
2018-09-25T11:34:34.792Z,2.60
2018-09-25T11:37:15.494Z,2.57
2018-09-25T11:39:49.207Z,2.03
2018-09-25T11:42:22.947Z,4.40
2018-09-25T11:44:56.543Z,5.10
2018-09-25T11:47:30.184Z,8.10
2018-09-25T11:50:03.895Z,1.70
2018-09-25T11:52:38.476Z,2.27
2018-09-25T11:55:12.177Z,1.40
2018-09-25T11:57:45.771Z,3.17
2018-09-25T12:00:19.340Z,1.53
2018-09-25T12:02:54.077Z,2.83
2018-09-25T12:05:27.873Z,4.10
2018-09-25T12:08:01.619Z,5.00
2018-09-25T12:10:35.201Z,3.07
2018-09-25T12:13:08.883Z,2.95
2018-09-25T12:15:42.621Z,3.53
2018-09-25T12:18:16.438Z,2.33
2018-09-25T12:20:50.293Z,3.65
2018-09-25T12:23:25.046Z,4.65
2018-09-25T12:25:58.687Z,2.30
2018-09-25T12:28:32.432Z,3.93
2018-09-25T12:31:06.128Z,1.87
2018-09-25T12:33:40.007Z,2.30
2018-09-25T12:36:13.682Z,3.20
2018-09-25T12:38:47.419Z,2.55
2018-09-25T12:41:21.223Z,5.00
2018-09-25T12:43:54.993Z,1.40
2018-09-25T12:46:28.741Z,1.23
2018-09-25T12:49:02.328Z,3.83
2018-09-25T12:51:35.980Z,3.07
2018-09-25T12:54:09.707Z,4.17
2018-09-25T12:56:43.437Z,6.43
2018-09-25T12:59:17.128Z,2.80
2018-09-25T13:01:50.950Z,7.50
2018-09-25T13:04:24.838Z,1.53
2018-09-25T13:06:58.559Z,2.40
2018-09-25T13:09:32.126Z,1.60
2018-09-25T13:12:05.763Z,3.80
2018-09-25T13:14:39.376Z,2.60
2018-09-25T13:17:13.014Z,3.73
2018-09-25T13:19:46.746Z,3.07
2018-09-25T13:22:20.245Z,1.90
2018-09-25T13:24:54.010Z,3.13
2018-09-25T13:27:28.117Z,8.10
2018-09-25T13:30:01.911Z,2.63
2018-09-25T13:32:35.696Z,5.70
2018-09-25T13:35:09.564Z,4.30
2018-09-25T13:37:43.155Z,3.23
2018-09-25T13:40:16.877Z,3.85
2018-09-25T13:42:50.642Z,2.80
2018-09-25T13:45:24.320Z,3.42
2018-09-25T13:47:57.950Z,2.80
2018-09-25T13:50:31.847Z,3.83
2018-09-25T13:53:05.621Z,1.93
2018-09-25T13:55:39.464Z,1.43
2018-09-25T13:58:12.980Z,3.70
2018-09-25T14:00:46.718Z,2.87
2018-09-25T14:03:20.399Z,4.70
2018-09-25T14:05:54.127Z,2.23
2018-09-25T14:08:27.866Z,3.45
2018-09-25T14:11:01.548Z,3.90
2018-09-25T14:13:35.257Z,4.70
2018-09-25T14:16:09.199Z,4.10
2018-09-25T14:18:42.898Z,3.87
2018-09-25T14:21:16.564Z,5.67
2018-09-25T14:23:50.181Z,1.75
2018-09-25T14:26:23.951Z,5.22
2018-09-25T14:28:57.673Z,6.17
2018-09-25T14:31:31.492Z,6.03
2018-09-25T14:34:05.020Z,5.63
2018-09-25T14:36:38.690Z,2.27
2018-09-25T14:39:19.634Z,4.03
2018-09-25T14:41:53.399Z,1.90
2018-09-25T14:44:27.063Z,6.30
2018-09-25T14:47:00.718Z,4.05
2018-09-25T14:49:34.470Z,2.20
2018-09-25T14:52:08.395Z,3.67
2018-09-25T14:54:42.074Z,2.00
2018-09-25T14:57:15.928Z,2.53
2018-09-25T14:59:49.678Z,2.90
2018-09-25T15:02:23.354Z,2.03
2018-09-25T15:04:57.008Z,3.67
2018-09-25T15:07:30.847Z,2.27
2018-09-25T15:10:04.514Z,2.40
2018-09-25T15:12:38.382Z,3.40
2018-09-25T15:15:12.193Z,3.90
2018-09-25T15:17:45.817Z,5.10
2018-09-25T15:20:19.664Z,1.40
2018-09-25T15:22:53.388Z,2.53
2018-09-25T15:25:26.929Z,2.20
2018-09-25T15:28:00.577Z,4.10
2018-09-25T15:30:34.370Z,2.27
2018-09-25T15:33:08.177Z,4.12
2018-09-25T15:35:42.115Z,1.82
2018-09-25T15:38:15.856Z,3.70
2018-09-25T15:40:49.596Z,3.43
2018-09-25T15:43:23.267Z,3.33
2018-09-25T15:45:57.196Z,4.80
2018-09-25T15:48:30.833Z,3.67
2018-09-25T15:51:04.519Z,3.83
2018-09-25T15:53:39.018Z,6.77
2018-09-25T15:56:12.799Z,4.28
2018-09-25T15:58:46.549Z,5.57
2018-09-25T16:01:20.436Z,2.27
2018-09-25T16:03:55.004Z,3.27
2018-09-25T16:06:28.560Z,3.23
2018-09-25T16:09:02.393Z,7.93
2018-09-25T16:11:36.131Z,1.70
2018-09-25T16:14:09.868Z,2.80
2018-09-25T16:16:43.516Z,1.67
2018-09-25T16:19:17.309Z,7.60
2018-09-25T16:21:50.909Z,3.20
2018-09-25T16:24:24.523Z,3.47
2018-09-25T16:26:58.283Z,4.73
2018-09-25T16:29:32.171Z,4.03
2018-09-25T16:32:05.945Z,1.80
2018-09-25T16:34:40.299Z,4.13
2018-09-25T16:37:13.971Z,33.67
2018-09-25T16:39:47.676Z,1.63
2018-09-25T16:42:21.543Z,5.97
2018-09-25T16:44:55.375Z,2.67
2018-09-25T16:47:29.201Z,3.13
2018-09-25T16:50:05.795Z,1.67
2018-09-25T16:52:39.637Z,4.73
2018-09-25T16:55:13.382Z,3.50
2018-09-25T16:57:47.184Z,2.10
2018-09-25T17:00:20.789Z,2.80
2018-09-25T17:02:54.590Z,2.70
2018-09-25T17:05:28.377Z,2.35
2018-09-25T17:08:02.260Z,5.53
2018-09-25T17:10:35.876Z,2.62
2018-09-25T17:16:14.071Z,4.00
2018-09-25T17:18:47.814Z,1.93
2018-09-25T17:21:21.608Z,1.37
2018-09-25T17:23:55.391Z,2.40
2018-09-25T17:26:29.129Z,1.60
2018-09-25T17:29:02.831Z,1.53
2018-09-25T17:31:36.617Z,3.30
2018-09-25T17:34:10.295Z,1.50
2018-09-25T17:36:44.176Z,2.30
2018-09-25T17:39:17.827Z,3.93
2018-09-25T17:41:51.537Z,1.93
2018-09-25T17:44:25.158Z,2.73
2018-09-25T17:46:58.960Z,2.65
2018-09-25T17:49:32.703Z,1.82
2018-09-25T17:52:06.568Z,2.70
2018-09-25T17:54:40.276Z,3.50
2018-09-25T17:57:14.054Z,1.95
2018-09-25T17:59:47.607Z,1.03
2018-09-25T18:02:21.274Z,1.63
2018-09-25T18:04:55.025Z,1.70
2018-09-25T18:07:28.845Z,5.67
2018-09-25T18:10:02.464Z,2.10
2018-09-25T18:12:36.100Z,1.22
2018-09-25T18:15:10.230Z,1.95
2018-09-25T18:17:43.845Z,2.50
2018-09-25T18:20:17.738Z,2.17
2018-09-25T18:22:51.543Z,1.87
2018-09-25T18:25:25.231Z,1.97
2018-09-25T18:27:59.583Z,3.27
2018-09-25T18:30:33.573Z,2.22
2018-09-25T18:33:07.386Z,6.03
2018-09-25T18:35:41.176Z,2.65
2018-09-25T18:38:15.700Z,1.53
2018-09-25T18:40:49.604Z,3.47
2018-09-25T18:43:23.394Z,2.80
2018-09-25T18:45:57.156Z,1.20
2018-09-25T18:48:30.935Z,4.93
2018-09-25T18:51:04.705Z,6.87
2018-09-25T18:53:38.530Z,6.23
2018-09-25T18:56:12.213Z,3.40
2018-09-25T18:58:46.145Z,3.37
2018-09-25T19:01:20.058Z,1.37
2018-09-25T19:03:53.880Z,5.60
2018-09-25T19:06:27.483Z,1.67
2018-09-25T19:09:01.366Z,3.83
2018-09-25T19:11:35.047Z,2.17
2018-09-25T19:14:08.672Z,4.45
2018-09-25T19:16:42.719Z,2.85
2018-09-25T19:19:17.439Z,1.80
2018-09-25T19:21:52.599Z,2.40
2018-09-25T19:24:27.827Z,2.97
2018-09-25T19:27:03.267Z,4.27
2018-09-25T19:29:37.738Z,3.17
2018-09-25T19:32:11.694Z,3.20
2018-09-25T19:34:45.473Z,3.27
2018-09-25T19:37:19.218Z,1.73
2018-09-25T19:39:52.969Z,4.95
2018-09-25T19:42:27.945Z,5.30
2018-09-25T19:45:01.761Z,5.70
2018-09-25T19:47:35.400Z,3.63
2018-09-25T19:50:10.235Z,6.63
2018-09-25T19:52:43.921Z,5.97
2018-09-25T19:55:17.833Z,2.87
2018-09-25T19:57:51.688Z,3.57
2018-09-25T20:00:25.424Z,4.00
2018-09-25T20:02:59.193Z,5.60
2018-09-25T20:05:33.144Z,5.63
2018-09-25T20:08:06.959Z,2.60
2018-09-25T20:10:40.741Z,2.07
2018-09-25T20:13:14.701Z,1.60
2018-09-25T20:15:48.422Z,3.97
2018-09-25T20:18:22.223Z,3.40
2018-09-25T20:20:56.297Z,3.30
2018-09-25T20:23:30.100Z,3.30
2018-09-25T20:26:03.867Z,1.87
2018-09-25T20:28:37.803Z,2.85
2018-09-25T20:31:11.652Z,1.80
2018-09-25T20:33:45.952Z,2.52
2018-09-25T20:36:19.563Z,4.50
2018-09-25T20:38:53.401Z,2.73
2018-09-25T20:41:27.173Z,8.58
2018-09-25T20:44:01.097Z,2.30
2018-09-25T20:46:38.597Z,4.70
2018-09-25T20:49:12.505Z,2.43
2018-09-25T20:51:46.365Z,2.03
2018-09-25T20:54:20.321Z,3.62
2018-09-25T20:56:53.930Z,2.33
2018-09-25T20:59:27.945Z,4.50
2018-09-25T21:02:01.921Z,5.70
2018-09-25T21:04:35.670Z,7.23
2018-09-25T21:07:09.505Z,5.63
2018-09-25T21:09:43.384Z,2.80
2018-09-25T21:12:17.177Z,4.27
2018-09-25T21:14:50.916Z,2.90
2018-09-25T21:17:24.657Z,5.90
2018-09-25T21:19:58.434Z,5.77
2018-09-25T21:22:32.251Z,8.20
2018-09-25T21:25:05.929Z,4.42
2018-09-25T21:27:39.713Z,6.97
2018-09-25T21:30:13.460Z,4.57
2018-09-25T21:32:47.236Z,4.00
2018-09-25T21:35:20.931Z,3.75
2018-09-25T21:38:11.056Z,3.13
2018-09-25T21:40:44.980Z,4.30
2018-09-25T21:43:18.726Z,4.27
2018-09-25T21:45:54.324Z,3.67
2018-09-25T21:48:28.020Z,2.85
2018-09-25T21:51:03.586Z,2.70
2018-09-25T21:53:47.154Z,9.23
2018-09-25T21:56:24.924Z,3.77
2018-09-25T21:58:58.912Z,2.63
2018-09-25T22:01:32.647Z,9.40
2018-09-25T22:04:07.242Z,4.73
2018-09-25T22:06:40.837Z,7.40
2018-09-25T22:09:14.548Z,5.50
2018-09-25T22:11:48.200Z,3.13
2018-09-25T22:14:22.489Z,4.40
2018-09-25T22:16:56.237Z,4.60
2018-09-25T22:19:29.922Z,2.42
2018-09-25T22:22:03.761Z,2.93
2018-09-25T22:24:37.390Z,2.17
2018-09-25T22:27:11.107Z,2.93
2018-09-25T22:29:45.675Z,3.33
2018-09-25T22:32:20.033Z,5.50
2018-09-25T22:34:54.445Z,3.40
2018-09-25T22:37:28.216Z,8.20
2018-09-25T22:40:01.832Z,4.08
2018-09-25T22:42:35.751Z,2.42
2018-09-25T22:45:09.591Z,2.40
2018-09-25T22:47:43.185Z,4.95
2018-09-25T22:50:16.904Z,7.47
2018-09-25T22:52:50.712Z,4.00
2018-09-25T22:55:24.485Z,2.43
2018-09-25T22:57:58.180Z,2.70
2018-09-25T23:00:31.855Z,2.13
2018-09-25T23:03:06.450Z,4.80
2018-09-25T23:05:40.202Z,2.63
2018-09-25T23:08:13.849Z,3.70
2018-09-25T23:10:47.587Z,2.75
2018-09-25T23:13:22.044Z,2.42
2018-09-25T23:15:55.929Z,2.07
2018-09-25T23:18:29.688Z,3.40
2018-09-25T23:21:03.347Z,2.70
2018-09-25T23:23:37.005Z,3.00
2018-09-25T23:26:10.807Z,4.85
2018-09-25T23:28:44.524Z,6.13
2018-09-25T23:31:18.257Z,2.67
2018-09-25T23:33:51.913Z,3.93
2018-09-25T23:36:25.737Z,6.15
2018-09-25T23:39:02.364Z,2.80
2018-09-25T23:42:36.104Z,6.33
2018-09-25T23:45:09.995Z,9.88
2018-09-25T23:47:43.560Z,6.60
2018-09-25T23:50:19.055Z,3.22
2018-09-25T23:53:04.624Z,2.47
2018-09-25T23:55:37.462Z,3.57
2018-09-25T23:58:15.331Z,5.00
